sensor_id;sensor_type;location;lat;lon;timestamp;pressure;altitude;pressure_sealevel;temperature;humidity
49813;BME280;35706;52.100;5.056;2022-11-22T00:00:56;99131.28;;;6.66;100.00
49813;BME280;35706;52.100;5.056;2022-11-22T00:01:56;99121.56;;;6.58;100.00
49813;BME280;35706;52.100;5.056;2022-11-22T00:02:56;99132.41;;;6.63;100.00
49813;BME280;35706;52.100;5.056;2022-11-22T00:03:56;99126.72;;;6.68;100.00
49813;BME280;35706;52.100;5.056;2022-11-22T00:04:57;99129.47;;;6.66;100.00
49813;BME280;35706;52.100;5.056;2022-11-22T00:05:57;99142.53;;;6.66;100.00
49813;BME280;35706;52.100;5.056;2022-11-22T00:06:57;99130.44;;;6.65;100.00
49813;BME280;35706;52.100;5.056;2022-11-22T00:07:57;99123.59;;;6.64;100.00
49813;BME280;35706;52.100;5.056;2022-11-22T00:08:58;99140.38;;;6.62;100.00
49813;BME280;35706;52.100;5.056;2022-11-22T00:09:58;99125.16;;;6.57;100.00
49813;BME280;35706;52.100;5.056;2022-11-22T00:10:58;99126.72;;;6.68;100.00
49813;BME280;35706;52.100;5.056;2022-11-22T00:11:59;99121.81;;;6.65;100.00
49813;BME280;35706;52.100;5.056;2022-11-22T00:12:59;99123.16;;;6.69;100.00
49813;BME280;35706;52.100;5.056;2022-11-22T00:14:00;99127.72;;;6.75;100.00
49813;BME280;35706;52.100;5.056;2022-11-22T00:15:00;99126.25;;;6.72;100.00
49813;BME280;35706;52.100;5.056;2022-11-22T00:16:02;99120.22;;;6.72;100.00
49813;BME280;35706;52.100;5.056;2022-11-22T00:17:03;99125.44;;;6.72;100.00
49813;BME280;35706;52.100;5.056;2022-11-22T00:18:03;99124.31;;;6.75;100.00
49813;BME280;35706;52.100;5.056;2022-11-22T00:19:03;99128.38;;;6.69;100.00
49813;BME280;35706;52.100;5.056;2022-11-22T00:20:05;99128.19;;;6.70;100.00
49813;BME280;35706;52.100;5.056;2022-11-22T00:21:07;99129.84;;;6.71;100.00
49813;BME280;35706;52.100;5.056;2022-11-22T00:22:08;99128.72;;;6.74;100.00
49813;BME280;35706;52.100;5.056;2022-11-22T00:23:08;99118.88;;;6.68;100.00
49813;BME280;35706;52.100;5.056;2022-11-22T00:24:11;99125.13;;;6.75;100.00
49813;BME280;35706;52.100;5.056;2022-11-22T00:25:12;99128.03;;;6.72;100.00
49813;BME280;35706;52.100;5.056;2022-11-22T00:26:12;99123.28;;;6.67;100.00
49813;BME280;35706;52.100;5.056;2022-11-22T00:27:13;99120.81;;;6.66;100.00
49813;BME280;35706;52.100;5.056;2022-11-22T00:28:13;99123.97;;;6.69;100.00
49813;BME280;35706;52.100;5.056;2022-11-22T00:29:13;99132.91;;;6.67;100.00
49813;BME280;35706;52.100;5.056;2022-11-22T00:30:15;99130.66;;;6.72;100.00
49813;BME280;35706;52.100;5.056;2022-11-22T00:31:15;99130.00;;;6.70;100.00
49813;BME280;35706;52.100;5.056;2022-11-22T00:32:15;99146.31;;;6.72;100.00
49813;BME280;35706;52.100;5.056;2022-11-22T00:33:16;99134.53;;;6.68;100.00
49813;BME280;35706;52.100;5.056;2022-11-22T00:34:16;99130.25;;;6.59;100.00
49813;BME280;35706;52.100;5.056;2022-11-22T00:35:16;99135.69;;;6.65;100.00
49813;BME280;35706;52.100;5.056;2022-11-22T00:36:17;99126.41;;;6.71;100.00
49813;BME280;35706;52.100;5.056;2022-11-22T00:37:17;99134.03;;;6.64;100.00
49813;BME280;35706;52.100;5.056;2022-11-22T00:38:17;99130.31;;;6.67;100.00
49813;BME280;35706;52.100;5.056;2022-11-22T00:39:18;99127.19;;;6.63;100.00
49813;BME280;35706;52.100;5.056;2022-11-22T00:40:18;99117.94;;;6.69;100.00
49813;BME280;35706;52.100;5.056;2022-11-22T00:41:18;99132.06;;;6.66;100.00
49813;BME280;35706;52.100;5.056;2022-11-22T00:42:18;99126.72;;;6.68;100.00
49813;BME280;35706;52.100;5.056;2022-11-22T00:43:19;99118.88;;;6.68;100.00
49813;BME280;35706;52.100;5.056;2022-11-22T00:44:19;99120.53;;;6.69;100.00
49813;BME280;35706;52.100;5.056;2022-11-22T00:45:19;99123.91;;;6.61;100.00
49813;BME280;35706;52.100;5.056;2022-11-22T00:46:20;99123.97;;;6.51;100.00
49813;BME280;35706;52.100;5.056;2022-11-22T00:47:20;99129.94;;;6.62;100.00
49813;BME280;35706;52.100;5.056;2022-11-22T00:48:20;99126.03;;;6.66;100.00
49813;BME280;35706;52.100;5.056;2022-11-22T00:49:20;99122.41;;;6.59;100.00
49813;BME280;35706;52.100;5.056;2022-11-22T00:50:21;99129.88;;;6.53;100.00
49813;BME280;35706;52.100;5.056;2022-11-22T00:51:21;99121.84;;;6.47;100.00
49813;BME280;35706;52.100;5.056;2022-11-22T00:52:21;99121.84;;;6.47;100.00
49813;BME280;35706;52.100;5.056;2022-11-22T00:53:22;99122.56;;;6.57;100.00
49813;BME280;35706;52.100;5.056;2022-11-22T00:54:22;99121.81;;;6.65;100.00
49813;BME280;35706;52.100;5.056;2022-11-22T00:55:23;99121.91;;;6.55;100.00
49813;BME280;35706;52.100;5.056;2022-11-22T00:56:23;99137.69;;;6.53;100.00
49813;BME280;35706;52.100;5.056;2022-11-22T00:57:23;99132.00;;;6.50;100.00
49813;BME280;35706;52.100;5.056;2022-11-22T00:58:24;99126.44;;;6.53;100.00
49813;BME280;35706;52.100;5.056;2022-11-22T00:59:24;99122.88;;;6.54;100.00
49813;BME280;35706;52.100;5.056;2022-11-22T01:00:27;99143.25;;;6.50;100.00
49813;BME280;35706;52.100;5.056;2022-11-22T01:01:27;99133.94;;;6.48;100.00
49813;BME280;35706;52.100;5.056;2022-11-22T01:02:27;99131.00;;;6.51;100.00
49813;BME280;35706;52.100;5.056;2022-11-22T01:03:28;99145.53;;;6.53;100.00
49813;BME280;35706;52.100;5.056;2022-11-22T01:04:29;99141.19;;;6.62;100.00
49813;BME280;35706;52.100;5.056;2022-11-22T01:05:29;99133.09;;;6.47;100.00
49813;BME280;35706;52.100;5.056;2022-11-22T01:06:29;99133.81;;;6.58;100.00
49813;BME280;35706;52.100;5.056;2022-11-22T01:07:30;99135.09;;;6.53;100.00
49813;BME280;35706;52.100;5.056;2022-11-22T01:08:30;99135.47;;;6.59;100.00
49813;BME280;35706;52.100;5.056;2022-11-22T01:09:30;99139.34;;;6.55;100.00
49813;BME280;35706;52.100;5.056;2022-11-22T01:10:31;99143.44;;;6.57;100.00
49813;BME280;35706;52.100;5.056;2022-11-22T01:11:33;99139.34;;;6.55;100.00
49813;BME280;35706;52.100;5.056;2022-11-22T01:12:34;99147.13;;;6.46;100.00
49813;BME280;35706;52.100;5.056;2022-11-22T01:13:34;99134.59;;;6.50;100.00
49813;BME280;35706;52.100;5.056;2022-11-22T01:14:35;99129.06;;;6.53;100.00
49813;BME280;35706;52.100;5.056;2022-11-22T01:15:35;99138.91;;;6.41;100.00
49813;BME280;35706;52.100;5.056;2022-11-22T01:16:35;99137.59;;;6.37;100.00
49813;BME280;35706;52.100;5.056;2022-11-22T01:17:36;99126.38;;;6.45;100.00
49813;BME280;35706;52.100;5.056;2022-11-22T01:18:36;99124.22;;;6.40;100.00
49813;BME280;35706;52.100;5.056;2022-11-22T01:19:36;99124.59;;;6.45;100.00
49813;BME280;35706;52.100;5.056;2022-11-22T01:20:39;99138.84;;;6.51;100.00
49813;BME280;35706;52.100;5.056;2022-11-22T01:21:39;99136.00;;;6.44;100.00
49813;BME280;35706;52.100;5.056;2022-11-22T01:22:39;99142.19;;;6.43;100.00
49813;BME280;35706;52.100;5.056;2022-11-22T01:23:40;99134.22;;;6.45;100.00
49813;BME280;35706;52.100;5.056;2022-11-22T01:24:43;99133.41;;;6.44;100.00
49813;BME280;35706;52.100;5.056;2022-11-22T01:25:43;99125.22;;;6.39;100.00
49813;BME280;35706;52.100;5.056;2022-11-22T01:26:44;99126.31;;;6.37;100.00
49813;BME280;35706;52.100;5.056;2022-11-22T01:27:44;99129.13;;;6.43;100.00
49813;BME280;35706;52.100;5.056;2022-11-22T01:28:44;99124.84;;;6.34;100.00
49813;BME280;35706;52.100;5.056;2022-11-22T01:29:45;99122.91;;;6.36;100.00
49813;BME280;35706;52.100;5.056;2022-11-22T01:30:49;99123.50;;;6.48;100.00
49813;BME280;35706;52.100;5.056;2022-11-22T01:31:50;99119.06;;;6.48;100.00
49813;BME280;35706;52.100;5.056;2022-11-22T01:32:50;99121.09;;;6.37;100.00
49813;BME280;35706;52.100;5.056;2022-11-22T01:33:51;99121.09;;;6.37;100.00
49813;BME280;35706;52.100;5.056;2022-11-22T01:34:51;99126.53;;;6.43;100.00
49813;BME280;35706;52.100;5.056;2022-11-22T01:35:52;99121.03;;;6.46;100.00
49813;BME280;35706;52.100;5.056;2022-11-22T01:36:53;99117.75;;;6.44;100.00
49813;BME280;35706;52.100;5.056;2022-11-22T01:37:53;99118.66;;;6.35;100.00
49813;BME280;35706;52.100;5.056;2022-11-22T01:38:53;99127.97;;;6.38;100.00
49813;BME280;35706;52.100;5.056;2022-11-22T01:39:54;99126.25;;;6.46;100.00
49813;BME280;35706;52.100;5.056;2022-11-22T01:40:54;99122.16;;;6.44;100.00
49813;BME280;35706;52.100;5.056;2022-11-22T01:41:54;99128.19;;;6.44;100.00
49813;BME280;35706;52.100;5.056;2022-11-22T01:42:57;99129.38;;;6.32;100.00
49813;BME280;35706;52.100;5.056;2022-11-22T01:44:16;99138.91;;;6.41;100.00
49813;BME280;35706;52.100;5.056;2022-11-22T01:46:36;99138.63;;;6.44;100.00
49813;BME280;35706;52.100;5.056;2022-11-22T01:47:37;99138.91;;;6.41;100.00
49813;BME280;35706;52.100;5.056;2022-11-22T01:48:50;99133.66;;;6.33;100.00
49813;BME280;35706;52.100;5.056;2022-11-22T01:50:04;99136.75;;;6.37;100.00
49813;BME280;35706;52.100;5.056;2022-11-22T01:51:15;99133.03;;;6.39;100.00
49813;BME280;35706;52.100;5.056;2022-11-22T01:52:20;99129.53;;;6.30;100.00
49813;BME280;35706;52.100;5.056;2022-11-22T01:53:33;99131.03;;;6.33;100.00
49813;BME280;35706;52.100;5.056;2022-11-22T01:54:37;99129.69;;;6.29;100.00
49813;BME280;35706;52.100;5.056;2022-11-22T01:55:40;99136.53;;;6.30;100.00
49813;BME280;35706;52.100;5.056;2022-11-22T01:56:42;99125.50;;;6.36;100.00
49813;BME280;35706;52.100;5.056;2022-11-22T01:57:44;99130.06;;;6.34;100.00
49813;BME280;35706;52.100;5.056;2022-11-22T01:58:48;99132.72;;;6.42;100.00
49813;BME280;35706;52.100;5.056;2022-11-22T02:00:02;99137.94;;;6.42;100.00
49813;BME280;35706;52.100;5.056;2022-11-22T02:01:03;99140.88;;;6.39;100.00
49813;BME280;35706;52.100;5.056;2022-11-22T02:02:04;99157.72;;;6.27;100.00
49813;BME280;35706;52.100;5.056;2022-11-22T02:03:08;99143.03;;;6.26;100.00
49813;BME280;35706;52.100;5.056;2022-11-22T02:04:11;99137.59;;;6.37;100.00
49813;BME280;35706;52.100;5.056;2022-11-22T02:05:15;99131.53;;;6.37;100.00
49813;BME280;35706;52.100;5.056;2022-11-22T02:06:17;99149.66;;;6.38;100.00
49813;BME280;35706;52.100;5.056;2022-11-22T02:07:26;99133.34;;;6.36;100.00
49813;BME280;35706;52.100;5.056;2022-11-22T02:08:59;99147.66;;;6.32;100.00
49813;BME280;35706;52.100;5.056;2022-11-22T02:09:58;99143.63;;;6.38;100.00
49813;BME280;35706;52.100;5.056;2022-11-22T02:10:58;99142.50;;;6.40;100.00
49813;BME280;35706;52.100;5.056;2022-11-22T02:12:02;99144.59;;;6.37;100.00
49813;BME280;35706;52.100;5.056;2022-11-22T02:13:05;99143.41;;;6.31;100.00
49813;BME280;35706;52.100;5.056;2022-11-22T02:14:07;99151.66;;;6.26;100.00
49813;BME280;35706;52.100;5.056;2022-11-22T02:15:09;99147.44;;;6.25;100.00
49813;BME280;35706;52.100;5.056;2022-11-22T02:16:10;99149.22;;;6.25;100.00
49813;BME280;35706;52.100;5.056;2022-11-22T02:17:11;99150.84;;;6.26;100.00
49813;BME280;35706;52.100;5.056;2022-11-22T02:18:11;99153.31;;;6.27;100.00
49813;BME280;35706;52.100;5.056;2022-11-22T02:19:17;99164.44;;;6.29;99.86
49813;BME280;35706;52.100;5.056;2022-11-22T02:20:18;99164.03;;;6.24;100.00
49813;BME280;35706;52.100;5.056;2022-11-22T02:21:19;99167.50;;;6.25;100.00
49813;BME280;35706;52.100;5.056;2022-11-22T02:22:54;99159.66;;;6.25;100.00
49813;BME280;35706;52.100;5.056;2022-11-22T02:24:07;99163.69;;;6.37;99.55
49813;BME280;35706;52.100;5.056;2022-11-22T02:25:26;99175.00;;;6.28;99.87
49813;BME280;35706;52.100;5.056;2022-11-22T02:26:30;99166.13;;;6.39;99.49
49813;BME280;35706;52.100;5.056;2022-11-22T02:27:30;99166.13;;;6.39;99.41
49813;BME280;35706;52.100;5.056;2022-11-22T02:28:34;99155.25;;;6.43;99.02
49813;BME280;35706;52.100;5.056;2022-11-22T02:29:36;99159.97;;;6.40;99.16
49813;BME280;35706;52.100;5.056;2022-11-22T02:30:37;99163.09;;;6.25;99.55
49813;BME280;35706;52.100;5.056;2022-11-22T02:31:43;99162.34;;;6.33;99.34
49813;BME280;35706;52.100;5.056;2022-11-22T02:32:44;99161.91;;;6.38;99.34
49813;BME280;35706;52.100;5.056;2022-11-22T02:33:45;99153.25;;;6.37;98.85
49813;BME280;35706;52.100;5.056;2022-11-22T02:34:47;99153.84;;;6.31;98.85
49813;BME280;35706;52.100;5.056;2022-11-22T02:35:48;99158.19;;;6.22;99.23
49813;BME280;35706;52.100;5.056;2022-11-22T02:36:51;99159.34;;;6.28;98.98
49813;BME280;35706;52.100;5.056;2022-11-22T02:37:58;99155.72;;;6.21;99.22
49813;BME280;35706;52.100;5.056;2022-11-22T02:39:00;99159.75;;;6.33;99.09
49813;BME280;35706;52.100;5.056;2022-11-22T02:40:05;99155.03;;;6.37;99.09
49813;BME280;35706;52.100;5.056;2022-11-22T02:41:09;99153.25;;;6.37;98.52
49813;BME280;35706;52.100;5.056;2022-11-22T02:42:11;99152.19;;;6.30;98.63
49813;BME280;35706;52.100;5.056;2022-11-22T02:43:19;99155.84;;;6.19;98.78
49813;BME280;35706;52.100;5.056;2022-11-22T02:44:21;99156.66;;;6.20;99.33
49813;BME280;35706;52.100;5.056;2022-11-22T02:45:22;99157.13;;;6.15;99.44
49813;BME280;35706;52.100;5.056;2022-11-22T02:46:22;99156.38;;;6.23;99.15
49813;BME280;35706;52.100;5.056;2022-11-22T02:47:22;99166.59;;;6.16;99.04
49813;BME280;35706;52.100;5.056;2022-11-22T02:48:23;99153.97;;;6.11;99.05
49813;BME280;35706;52.100;5.056;2022-11-22T02:49:23;99160.53;;;6.16;99.11
49813;BME280;35706;52.100;5.056;2022-11-22T02:50:24;99161.06;;;6.19;98.84
49813;BME280;35706;52.100;5.056;2022-11-22T02:51:24;99166.22;;;6.11;98.85
49813;BME280;35706;52.100;5.056;2022-11-22T02:52:25;99156.22;;;6.24;98.31
49813;BME280;35706;52.100;5.056;2022-11-22T02:53:29;99157.94;;;6.16;98.19
49813;BME280;35706;52.100;5.056;2022-11-22T02:54:30;99156.22;;;6.06;98.54
49813;BME280;35706;52.100;5.056;2022-11-22T02:55:30;99168.69;;;6.13;98.42
49813;BME280;35706;52.100;5.056;2022-11-22T02:56:31;99168.97;;;6.09;98.79
49813;BME280;35706;52.100;5.056;2022-11-22T02:57:31;99168.75;;;6.03;98.76
49813;BME280;35706;52.100;5.056;2022-11-22T02:58:31;99176.41;;;6.04;98.82
49813;BME280;35706;52.100;5.056;2022-11-22T02:59:32;99173.81;;;6.04;98.71
49813;BME280;35706;52.100;5.056;2022-11-22T03:00:33;99176.41;;;6.04;98.85
49813;BME280;35706;52.100;5.056;2022-11-22T03:01:34;99172.56;;;6.08;98.63
49813;BME280;35706;52.100;5.056;2022-11-22T03:02:34;99180.38;;;6.08;98.43
49813;BME280;35706;52.100;5.056;2022-11-22T03:03:35;99181.06;;;6.10;98.61
49813;BME280;35706;52.100;5.056;2022-11-22T03:04:35;99190.91;;;6.17;98.14
49813;BME280;35706;52.100;5.056;2022-11-22T03:05:35;99186.13;;;6.12;98.29
49813;BME280;35706;52.100;5.056;2022-11-22T03:06:35;99180.00;;;6.03;98.61
49813;BME280;35706;52.100;5.056;2022-11-22T03:07:36;99189.09;;;6.17;98.02
49813;BME280;35706;52.100;5.056;2022-11-22T03:08:36;99187.44;;;5.98;98.53
49813;BME280;35706;52.100;5.056;2022-11-22T03:09:36;99182.84;;;6.10;98.27
49813;BME280;35706;52.100;5.056;2022-11-22T03:10:37;99186.28;;;6.10;97.53
49813;BME280;35706;52.100;5.056;2022-11-22T03:11:37;99197.88;;;5.98;98.16
49813;BME280;35706;52.100;5.056;2022-11-22T03:12:37;99187.03;;;5.93;98.20
49813;BME280;35706;52.100;5.056;2022-11-22T03:13:37;99178.00;;;5.97;98.54
49813;BME280;35706;52.100;5.056;2022-11-22T03:14:38;99190.59;;;6.02;97.82
49813;BME280;35706;52.100;5.056;2022-11-22T03:15:38;99200.66;;;5.87;98.23
49813;BME280;35706;52.100;5.056;2022-11-22T03:16:38;99195.91;;;5.82;98.64
49813;BME280;35706;52.100;5.056;2022-11-22T03:17:39;99195.91;;;5.82;98.43
49813;BME280;35706;52.100;5.056;2022-11-22T03:18:39;99190.91;;;5.89;98.50
49813;BME280;35706;52.100;5.056;2022-11-22T03:19:39;99204.13;;;5.78;98.63
49813;BME280;35706;52.100;5.056;2022-11-22T03:20:39;99187.97;;;5.74;98.70
49813;BME280;35706;52.100;5.056;2022-11-22T03:21:41;99183.19;;;5.69;98.80
49813;BME280;35706;52.100;5.056;2022-11-22T03:22:41;99192.75;;;5.79;98.85
49813;BME280;35706;52.100;5.056;2022-11-22T03:23:42;99194.13;;;5.73;98.70
49813;BME280;35706;52.100;5.056;2022-11-22T03:24:42;99188.56;;;5.68;98.86
49813;BME280;35706;52.100;5.056;2022-11-22T03:25:43;99200.19;;;5.74;98.62
49813;BME280;35706;52.100;5.056;2022-11-22T03:26:47;99196.91;;;5.71;98.81
49813;BME280;35706;52.100;5.056;2022-11-22T03:27:48;99194.97;;;5.74;98.56
49813;BME280;35706;52.100;5.056;2022-11-22T03:28:48;99189.47;;;5.77;98.34
49813;BME280;35706;52.100;5.056;2022-11-22T03:29:48;99189.09;;;5.71;98.50
49813;BME280;35706;52.100;5.056;2022-11-22T03:30:49;99174.88;;;5.84;98.40
49813;BME280;35706;52.100;5.056;2022-11-22T03:31:49;99184.28;;;5.95;97.72
49813;BME280;35706;52.100;5.056;2022-11-22T03:32:49;99197.75;;;5.90;97.45
49813;BME280;35706;52.100;5.056;2022-11-22T03:33:49;99192.59;;;5.80;97.60
49813;BME280;35706;52.100;5.056;2022-11-22T03:34:50;99187.75;;;5.67;98.04
49813;BME280;35706;52.100;5.056;2022-11-22T03:35:55;99193.44;;;5.81;97.81
49813;BME280;35706;52.100;5.056;2022-11-22T03:36:55;99203.31;;;5.77;97.58
49813;BME280;35706;52.100;5.056;2022-11-22T03:37:55;99199.41;;;5.63;97.92
49813;BME280;35706;52.100;5.056;2022-11-22T03:38:56;99195.41;;;5.69;98.40
49813;BME280;35706;52.100;5.056;2022-11-22T03:39:57;99200.78;;;5.67;98.14
49813;BME280;35706;52.100;5.056;2022-11-22T03:40:57;99199.66;;;5.70;97.71
49813;BME280;35706;52.100;5.056;2022-11-22T03:41:58;99198.41;;;5.74;98.03
49813;BME280;35706;52.100;5.056;2022-11-22T03:42:59;99207.56;;;5.78;97.69
49813;BME280;35706;52.100;5.056;2022-11-22T03:44:00;99204.13;;;5.78;97.33
49813;BME280;35706;52.100;5.056;2022-11-22T03:45:00;99208.06;;;5.64;97.91
49813;BME280;35706;52.100;5.056;2022-11-22T03:46:00;99200.84;;;5.76;97.84
49813;BME280;35706;52.100;5.056;2022-11-22T03:47:01;99198.63;;;5.81;97.36
49813;BME280;35706;52.100;5.056;2022-11-22T03:48:01;99208.16;;;5.72;97.37
49813;BME280;35706;52.100;5.056;2022-11-22T03:49:01;99216.41;;;5.67;97.59
49813;BME280;35706;52.100;5.056;2022-11-22T03:50:02;99209.53;;;5.66;97.82
49813;BME280;35706;52.100;5.056;2022-11-22T03:51:05;99212.13;;;5.76;97.62
49813;BME280;35706;52.100;5.056;2022-11-22T03:52:06;99217.84;;;5.80;97.34
49813;BME280;35706;52.100;5.056;2022-11-22T03:53:07;99220.94;;;5.65;97.16
49813;BME280;35706;52.100;5.056;2022-11-22T03:54:07;99219.03;;;5.67;97.47
49813;BME280;35706;52.100;5.056;2022-11-22T03:55:07;99211.19;;;5.67;97.11
49813;BME280;35706;52.100;5.056;2022-11-22T03:56:08;99221.91;;;5.64;97.02
49813;BME280;35706;52.100;5.056;2022-11-22T03:57:08;99209.63;;;5.47;97.73
49813;BME280;35706;52.100;5.056;2022-11-22T03:58:08;99218.94;;;5.49;97.99
49813;BME280;35706;52.100;5.056;2022-11-22T03:59:09;99211.69;;;5.43;97.92
49813;BME280;35706;52.100;5.056;2022-11-22T04:00:09;99214.28;;;5.53;98.14
49813;BME280;35706;52.100;5.056;2022-11-22T04:01:10;99217.84;;;5.52;97.74
49813;BME280;35706;52.100;5.056;2022-11-22T04:02:10;99215.19;;;5.62;97.33
49813;BME280;35706;52.100;5.056;2022-11-22T04:03:10;99216.44;;;5.58;97.59
49813;BME280;35706;52.100;5.056;2022-11-22T04:04:11;99209.06;;;5.53;97.39
49813;BME280;35706;52.100;5.056;2022-11-22T04:05:11;99221.19;;;5.72;96.82
49813;BME280;35706;52.100;5.056;2022-11-22T04:06:11;99223.34;;;5.77;96.57
49813;BME280;35706;52.100;5.056;2022-11-22T04:07:12;99217.22;;;5.68;96.60
49813;BME280;35706;52.100;5.056;2022-11-22T04:08:12;99212.28;;;5.65;96.50
49813;BME280;35706;52.100;5.056;2022-11-22T04:09:13;99216.44;;;5.58;96.68
49813;BME280;35706;52.100;5.056;2022-11-22T04:10:13;99211.66;;;5.53;97.12
49813;BME280;35706;52.100;5.056;2022-11-22T04:11:14;99220.28;;;5.63;96.89
49813;BME280;35706;52.100;5.056;2022-11-22T04:12:14;99221.75;;;5.66;96.54
49813;BME280;35706;52.100;5.056;2022-11-22T04:13:14;99226.50;;;5.53;96.97
49813;BME280;35706;52.100;5.056;2022-11-22T04:14:15;99230.28;;;5.58;97.26
49813;BME280;35706;52.100;5.056;2022-11-22T04:15:35;99228.38;;;5.60;96.69
49813;BME280;35706;52.100;5.056;2022-11-22T04:16:35;99231.06;;;5.68;96.67
49813;BME280;35706;52.100;5.056;2022-11-22T04:17:39;99228.56;;;5.77;95.76
49813;BME280;35706;52.100;5.056;2022-11-22T04:18:39;99228.59;;;5.67;95.85
49813;BME280;35706;52.100;5.056;2022-11-22T04:19:39;99230.03;;;5.51;96.09
49813;BME280;35706;52.100;5.056;2022-11-22T04:21:00;99221.41;;;5.51;96.47
49813;BME280;35706;52.100;5.056;2022-11-22T04:22:18;99228.81;;;5.46;96.53
49813;BME280;35706;52.100;5.056;2022-11-22T04:23:21;99224.28;;;5.48;96.45
49813;BME280;35706;52.100;5.056;2022-11-22T04:24:22;99232.28;;;5.46;96.25
49813;BME280;35706;52.100;5.056;2022-11-22T04:25:51;99217.59;;;5.45;96.38
49813;BME280;35706;52.100;5.056;2022-11-22T04:26:52;99227.31;;;5.53;95.99
49813;BME280;35706;52.100;5.056;2022-11-22T04:27:53;99229.25;;;5.41;96.64
49813;BME280;35706;52.100;5.056;2022-11-22T04:28:54;99224.91;;;5.32;96.71
49813;BME280;35706;52.100;5.056;2022-11-22T04:29:54;99225.59;;;5.34;97.10
49813;BME280;35706;52.100;5.056;2022-11-22T04:30:54;99238.00;;;5.50;96.92
49813;BME280;35706;52.100;5.056;2022-11-22T04:32:13;99235.00;;;5.45;96.15
49813;BME280;35706;52.100;5.056;2022-11-22T04:33:32;99234.66;;;5.30;96.55
49813;BME280;35706;52.100;5.056;2022-11-22T04:34:33;99233.94;;;5.38;96.94
49813;BME280;35706;52.100;5.056;2022-11-22T04:35:33;99237.13;;;5.32;96.51
49813;BME280;35706;52.100;5.056;2022-11-22T04:36:33;99228.19;;;5.34;96.67
49813;BME280;35706;52.100;5.056;2022-11-22T04:37:34;99232.03;;;5.40;96.18
49813;BME280;35706;52.100;5.056;2022-11-22T04:38:34;99237.13;;;5.32;96.54
49813;BME280;35706;52.100;5.056;2022-11-22T04:39:34;99240.69;;;5.30;96.47
49813;BME280;35706;52.100;5.056;2022-11-22T04:40:35;99243.84;;;5.34;96.62
49813;BME280;35706;52.100;5.056;2022-11-22T04:41:35;99242.69;;;5.46;96.00
49813;BME280;35706;52.100;5.056;2022-11-22T04:42:35;99232.78;;;5.50;95.68
49813;BME280;35706;52.100;5.056;2022-11-22T04:43:54;99240.47;;;5.51;96.07
49813;BME280;35706;52.100;5.056;2022-11-22T04:45:13;99232.53;;;5.43;95.35
49813;BME280;35706;52.100;5.056;2022-11-22T04:46:14;99237.06;;;5.51;95.48
49813;BME280;35706;52.100;5.056;2022-11-22T04:47:16;99240.34;;;5.53;95.43
49813;BME280;35706;52.100;5.056;2022-11-22T04:48:35;99240.50;;;5.42;95.78
49813;BME280;35706;52.100;5.056;2022-11-22T04:49:35;99242.16;;;5.43;95.58
49813;BME280;35706;52.100;5.056;2022-11-22T04:50:35;99244.88;;;5.51;95.33
49813;BME280;35706;52.100;5.056;2022-11-22T04:51:54;99241.03;;;5.45;94.76
49813;BME280;35706;52.100;5.056;2022-11-22T04:53:14;99239.97;;;5.38;95.00
49813;BME280;35706;52.100;5.056;2022-11-22T04:54:15;99243.78;;;5.44;95.00
49813;BME280;35706;52.100;5.056;2022-11-22T04:55:15;99244.47;;;5.46;94.85
49813;BME280;35706;52.100;5.056;2022-11-22T04:56:16;99256.13;;;5.42;95.11
49813;BME280;35706;52.100;5.056;2022-11-22T04:57:16;99253.03;;;5.28;95.04
49813;BME280;35706;52.100;5.056;2022-11-22T04:58:17;99243.84;;;5.34;95.12
49813;BME280;35706;52.100;5.056;2022-11-22T04:59:17;99257.81;;;5.33;95.17
49813;BME280;35706;52.100;5.056;2022-11-22T05:00:17;99255.19;;;5.33;95.03
49813;BME280;35706;52.100;5.056;2022-11-22T05:01:18;99246.88;;;5.20;95.26
49813;BME280;35706;52.100;5.056;2022-11-22T05:02:18;99250.47;;;5.09;95.82
49813;BME280;35706;52.100;5.056;2022-11-22T05:03:18;99255.13;;;5.05;96.36
49813;BME280;35706;52.100;5.056;2022-11-22T05:04:19;99252.53;;;5.05;95.98
49813;BME280;35706;52.100;5.056;2022-11-22T05:05:19;99254.19;;;5.06;96.04
49813;BME280;35706;52.100;5.056;2022-11-22T05:06:19;99257.84;;;5.14;96.00
49813;BME280;35706;52.100;5.056;2022-11-22T05:07:20;99257.97;;;5.12;95.66
49813;BME280;35706;52.100;5.056;2022-11-22T05:08:20;99258.09;;;5.20;95.34
49813;BME280;35706;52.100;5.056;2022-11-22T05:09:21;99271.84;;;5.13;95.58
49813;BME280;35706;52.100;5.056;2022-11-22T05:10:21;99258.41;;;5.07;95.69
49813;BME280;35706;52.100;5.056;2022-11-22T05:11:21;99256.06;;;5.14;95.97
49813;BME280;35706;52.100;5.056;2022-11-22T05:12:22;99253.31;;;5.25;95.29
49813;BME280;35706;52.100;5.056;2022-11-22T05:13:33;99260.44;;;5.23;94.88
49813;BME280;35706;52.100;5.056;2022-11-22T05:14:34;99257.59;;;5.17;95.04
49813;BME280;35706;52.100;5.056;2022-11-22T05:15:34;99266.22;;;5.17;94.79
49813;BME280;35706;52.100;5.056;2022-11-22T05:16:34;99258.53;;;5.16;94.65
49813;BME280;35706;52.100;5.056;2022-11-22T05:17:35;99262.38;;;5.21;94.86
49813;BME280;35706;52.100;5.056;2022-11-22T05:18:37;99260.03;;;5.18;94.84
49813;BME280;35706;52.100;5.056;2022-11-22T05:19:37;99254.94;;;5.26;94.41
49813;BME280;35706;52.100;5.056;2022-11-22T05:20:38;99264.16;;;5.21;94.38
49813;BME280;35706;52.100;5.056;2022-11-22T05:21:38;99251.84;;;5.03;95.31
49813;BME280;35706;52.100;5.056;2022-11-22T05:22:38;99251.69;;;4.95;95.33
49813;BME280;35706;52.100;5.056;2022-11-22T05:23:57;99258.56;;;4.86;95.95
49813;BME280;35706;52.100;5.056;2022-11-22T05:24:57;99254.59;;;5.02;95.97
49813;BME280;35706;52.100;5.056;2022-11-22T05:25:58;99264.28;;;5.19;95.01
49813;BME280;35706;52.100;5.056;2022-11-22T05:26:58;99261.28;;;5.14;94.78
49813;BME280;35706;52.100;5.056;2022-11-22T05:28:00;99262.94;;;5.15;94.52
49813;BME280;35706;52.100;5.056;2022-11-22T05:29:06;99253.19;;;5.17;94.55
49813;BME280;35706;52.100;5.056;2022-11-22T05:30:07;99260.72;;;5.20;94.29
49813;BME280;35706;52.100;5.056;2022-11-22T05:31:16;99267.59;;;5.12;93.93
49813;BME280;35706;52.100;5.056;2022-11-22T05:32:16;99267.06;;;5.08;94.36
49813;BME280;35706;52.100;5.056;2022-11-22T05:33:17;99263.22;;;4.93;94.51
49813;BME280;35706;52.100;5.056;2022-11-22T05:34:17;99281.03;;;4.97;94.74